Time;durP1;ratioP1;P1;durP2;ratioP2;P2;SDS_P1;SDS_P2;PMS_P1;PMS_P2;Temp;Humidity;BMP_temperature;BMP_pressure;BME280_temperature;BME280_humidity;BME280_pressure;Samples;Min_cycle;Max_cycle;Signal;HPM_P1;HPM_P2
2023/05/06 00:00:29;;;;;;;13.55;4.43;;;;;;;14.85;57.95;100674.66;5072013;28;20033;-89
2023/05/06 00:02:54;;;;;;;8.50;4.30;;;;;;;14.87;57.78;100672.63;5074319;28;20110;-86
2023/05/06 00:05:20;;;;;;;6.35;3.72;;;;;;;14.77;57.32;100661.00;5075252;28;20443;-87
2023/05/06 00:07:45;;;;;;;8.77;3.75;;;;;;;14.85;57.21;100669.22;5075922;28;20762;-87
2023/05/06 00:10:11;;;;;;;11.88;3.95;;;;;;;14.86;56.64;100670.91;5075160;28;20032;-86
2023/05/06 00:12:37;;;;;;;5.15;3.08;;;;;;;14.89;56.86;100676.03;5088997;28;20055;-86
2023/05/06 00:15:03;;;;;;;16.98;3.85;;;;;;;14.93;56.54;100676.59;5095338;28;20056;-86
2023/05/06 00:17:28;;;;;;;15.35;3.28;;;;;;;14.86;56.92;100660.09;5082574;28;20084;-87
2023/05/06 00:19:55;;;;;;;12.68;3.30;;;;;;;14.85;56.91;100662.97;5072433;28;20035;-87
2023/05/06 00:22:20;;;;;;;12.00;3.25;;;;;;;14.89;56.53;100659.78;5070978;28;20028;-87
2023/05/06 00:24:46;;;;;;;13.25;3.35;;;;;;;14.97;56.64;100678.00;5071348;28;20048;-86
2023/05/06 00:27:12;;;;;;;5.25;2.53;;;;;;;14.90;56.53;100661.50;5073251;28;20038;-86
2023/05/06 00:29:37;;;;;;;11.52;3.65;;;;;;;15.03;56.07;100672.81;5078418;28;20043;-87
2023/05/06 00:32:03;;;;;;;13.25;3.33;;;;;;;15.01;55.98;100658.59;5074110;28;20039;-87
2023/05/06 00:34:28;;;;;;;7.80;2.88;;;;;;;15.06;55.72;100677.09;5072944;28;20047;-86
2023/05/06 00:36:54;;;;;;;41.83;4.82;;;;;;;15.06;56.13;100661.69;5072689;28;20048;-86
2023/05/06 00:39:20;;;;;;;5.13;2.60;;;;;;;15.05;56.10;100659.97;5074749;28;20043;-85
2023/05/06 00:41:45;;;;;;;10.32;3.10;;;;;;;15.16;56.02;100662.47;5073589;28;20021;-88
2023/05/06 00:44:11;;;;;;;5.63;2.97;;;;;;;15.17;55.90;100657.88;5073338;28;20531;-88
2023/05/06 00:46:37;;;;;;;4.40;2.45;;;;;;;15.15;55.94;100646.38;5071267;28;20777;-88
2023/05/06 00:49:02;;;;;;;6.45;2.88;;;;;;;15.21;55.97;100652.03;5072273;28;20116;-88
2023/05/06 00:51:28;;;;;;;4.70;2.85;;;;;;;15.23;56.03;100651.84;5071774;28;20513;-86
2023/05/06 00:53:54;;;;;;;13.63;2.83;;;;;;;15.15;55.98;100644.50;5072165;28;20090;-87
2023/05/06 00:56:19;;;;;;;7.40;2.65;;;;;;;15.07;55.73;100630.91;5072238;28;20033;-88
2023/05/06 00:58:45;;;;;;;6.18;3.13;;;;;;;15.10;56.22;100640.56;5072244;28;20123;-86
2023/05/06 01:01:11;;;;;;;4.97;3.20;;;;;;;15.04;56.57;100635.75;5072505;28;20472;-87
2023/05/06 01:03:36;;;;;;;8.52;2.72;;;;;;;14.97;56.20;100626.53;5074348;28;20024;-86
2023/05/06 01:06:11;;;;;;;13.98;4.05;;;;;;;15.18;56.35;100649.63;5077058;28;20025;-87
2023/05/06 01:08:41;;;;;;;8.40;3.10;;;;;;;15.13;56.32;100645.69;5075341;28;20029;-86
2023/05/06 01:11:26;;;;;;;10.38;3.55;;;;;;;15.19;56.00;100643.22;5091048;28;20032;-85
2023/05/06 01:14:10;;;;;;;10.32;3.03;;;;;;;15.25;55.73;100647.16;5091459;28;20661;-87
2023/05/06 01:16:38;;;;;;;4.88;2.65;;;;;;;15.30;55.54;100635.84;5070244;28;20410;-87
2023/05/06 01:19:07;;;;;;;6.60;2.53;;;;;;;15.32;55.71;100636.56;5071280;28;20399;-88
2023/05/06 01:21:34;;;;;;;5.80;2.92;;;;;;;15.29;55.43;100618.72;5070058;28;20048;-86
2023/05/06 01:23:59;;;;;;;4.70;2.67;;;;;;;15.36;55.03;100613.53;5071827;28;20071;-85
2023/05/06 01:26:26;;;;;;;9.02;2.83;;;;;;;15.38;54.88;100623.22;5088635;28;20642;-85
2023/05/06 01:28:52;;;;;;;5.53;2.55;;;;;;;15.45;54.64;100623.44;5088938;28;20503;-86
2023/05/06 01:31:35;;;;;;;5.75;2.65;;;;;;;15.53;54.55;100637.13;5088830;28;20042;-87
2023/05/06 01:34:12;;;;;;;7.78;2.97;;;;;;;15.49;54.46;100633.00;5088440;28;20112;-88
2023/05/06 01:36:52;;;;;;;4.75;3.55;;;;;;;15.41;54.43;100625.59;5086985;28;20044;-86
2023/05/06 01:39:29;;;;;;;8.23;2.45;;;;;;;15.31;54.83;100610.44;5087229;28;20582;-86
2023/05/06 01:41:58;;;;;;;8.32;3.55;;;;;;;15.31;54.67;100627.56;5090388;28;20024;-87
2023/05/06 01:44:26;;;;;;;14.85;2.95;;;;;;;15.09;55.33;100618.03;5088634;28;20063;-87
2023/05/06 01:46:53;;;;;;;10.68;3.92;;;;;;;14.93;55.84;100615.16;5088162;28;20071;-87
2023/05/06 01:49:21;;;;;;;17.58;3.60;;;;;;;14.90;56.26;100622.72;5088656;28;20053;-86
2023/05/06 01:51:50;;;;;;;10.43;3.38;;;;;;;14.65;56.41;100597.22;5088582;28;20058;-85
2023/05/06 01:54:16;;;;;;;5.93;3.28;;;;;;;14.71;56.49;100619.13;5089779;28;20028;-84
2023/05/06 01:56:41;;;;;;;4.75;2.67;;;;;;;14.66;56.72;100626.88;5072290;28;20040;-85
2023/05/06 01:59:07;;;;;;;10.38;2.72;;;;;;;14.64;57.16;100617.19;5087985;28;20032;-86
2023/05/06 02:01:32;;;;;;;7.82;3.20;;;;;;;14.62;57.37;100619.19;5089422;28;20626;-86
2023/05/06 02:03:58;;;;;;;9.70;3.60;;;;;;;14.66;57.15;100621.47;5079829;28;20052;-86
2023/05/06 02:06:23;;;;;;;6.82;3.13;;;;;;;14.60;57.73;100613.09;5074438;28;20024;-85
2023/05/06 02:08:49;;;;;;;11.25;3.72;;;;;;;14.65;57.77;100602.66;5093610;28;20078;-85
2023/05/06 02:11:15;;;;;;;8.98;3.15;;;;;;;14.73;58.10;100620.84;5092755;28;20046;-86
2023/05/06 02:13:40;;;;;;;21.15;3.97;;;;;;;14.69;57.98;100613.03;5068495;28;20027;-86
2023/05/06 02:16:07;;;;;;;11.00;3.65;;;;;;;14.71;58.18;100627.25;5072939;28;20413;-86
2023/05/06 02:18:33;;;;;;;12.00;3.88;;;;;;;14.62;58.53;100620.03;5069840;28;20021;-86
2023/05/06 02:20:59;;;;;;;10.20;3.45;;;;;;;14.67;59.01;100619.59;5069135;28;20068;-85
2023/05/06 02:23:25;;;;;;;13.18;4.15;;;;;;;14.59;59.37;100609.53;5069228;28;20028;-85
2023/05/06 02:25:50;;;;;;;17.20;4.38;;;;;;;14.60;59.58;100615.78;5069858;28;20025;-85
2023/05/06 02:28:16;;;;;;;9.07;3.72;;;;;;;14.55;60.01;100610.00;5070051;28;20035;-85
2023/05/06 02:30:42;;;;;;;7.35;3.53;;;;;;;14.58;60.17;100623.22;5069850;28;20044;-85
2023/05/06 02:33:07;;;;;;;14.15;4.30;;;;;;;14.45;60.38;100617.28;5069947;28;20024;-84
2023/05/06 02:35:33;;;;;;;9.02;3.97;;;;;;;14.38;60.81;100613.47;5069641;28;20024;-86
2023/05/06 02:37:58;;;;;;;12.40;4.57;;;;;;;14.43;61.08;100628.25;5069629;28;20048;-85
2023/05/06 02:40:24;;;;;;;16.02;4.15;;;;;;;14.29;61.65;100603.50;5069546;28;20675;-85
2023/05/06 02:42:49;;;;;;;5.88;4.00;;;;;;;14.38;62.22;100624.28;5070251;28;20097;-86
2023/05/06 02:45:15;;;;;;;16.13;4.25;;;;;;;14.19;62.42;100596.28;5069517;28;20094;-85
2023/05/06 02:47:40;;;;;;;10.57;4.50;;;;;;;14.33;62.95;100613.06;5070514;28;20033;-84
2023/05/06 02:50:06;;;;;;;21.38;7.15;;;;;;;14.36;63.18;100623.59;5070443;28;20020;-85
2023/05/06 02:52:33;;;;;;;9.50;4.25;;;;;;;14.28;63.16;100612.66;5070105;28;20032;-85
2023/05/06 02:54:58;;;;;;;13.40;4.60;;;;;;;14.35;63.18;100621.88;5079806;28;20035;-83
2023/05/06 02:57:24;;;;;;;17.25;4.43;;;;;;;14.30;63.16;100608.78;5083930;28;20032;-84
2023/05/06 02:59:49;;;;;;;17.48;5.03;;;;;;;14.39;63.26;100618.75;5081859;28;20021;-85
2023/05/06 03:02:15;;;;;;;12.88;5.57;;;;;;;14.30;63.58;100606.09;5085600;28;20036;-86
2023/05/06 03:04:40;;;;;;;6.80;5.00;;;;;;;14.40;63.57;100625.84;5086978;28;20111;-84
2023/05/06 03:07:06;;;;;;;12.77;5.50;;;;;;;14.31;63.40;100615.06;5094390;28;20078;-85
2023/05/06 03:09:31;;;;;;;17.73;6.78;;;;;;;14.40;63.65;100622.31;5085433;28;20300;-86
2023/05/06 03:11:57;;;;;;;25.05;5.82;;;;;;;14.18;63.68;100591.91;5069653;28;20028;-84
2023/05/06 03:14:22;;;;;;;12.77;4.78;;;;;;;14.31;63.89;100604.25;5069095;28;20535;-86
2023/05/06 03:16:47;;;;;;;14.77;4.82;;;;;;;14.31;63.58;100606.94;5067472;28;20419;-85
2023/05/06 03:19:13;;;;;;;18.70;5.70;;;;;;;14.46;63.85;100624.41;5067158;28;20027;-87
2023/05/06 03:21:38;;;;;;;10.93;4.72;;;;;;;14.32;63.94;100600.50;5069430;28;20098;-85
2023/05/06 03:24:04;;;;;;;14.45;5.88;;;;;;;14.27;64.04;100608.22;5069328;28;20565;-86
2023/05/06 03:26:30;;;;;;;8.95;4.95;;;;;;;14.37;64.38;100636.16;5069178;28;20033;-86
2023/05/06 03:28:55;;;;;;;13.88;5.72;;;;;;;14.34;64.50;100628.31;5069388;28;20509;-85
2023/05/06 03:31:20;;;;;;;21.35;6.88;;;;;;;14.29;64.55;100628.72;5069530;28;20028;-85
2023/05/06 03:33:46;;;;;;;16.40;6.28;;;;;;;14.22;64.64;100638.41;5068869;28;20421;-86
2023/05/06 03:36:12;;;;;;;13.80;6.18;;;;;;;14.24;65.03;100641.84;5071589;28;20025;-86
2023/05/06 03:38:39;;;;;;;14.82;5.57;;;;;;;14.18;65.58;100643.28;5072197;28;20479;-85
2023/05/06 03:41:05;;;;;;;23.23;7.68;;;;;;;14.25;65.49;100642.72;5072086;28;20040;-86
2023/05/06 03:43:30;;;;;;;27.52;8.57;;;;;;;14.22;65.65;100637.59;5072136;28;20025;-87
2023/05/06 03:45:57;;;;;;;10.93;5.45;;;;;;;14.31;65.78;100661.06;5072599;28;20432;-86
2023/05/06 03:48:23;;;;;;;13.45;5.50;;;;;;;14.33;65.78;100657.22;5073014;28;20121;-86
2023/05/06 03:50:48;;;;;;;14.70;5.47;;;;;;;14.25;65.83;100631.88;5071912;28;20052;-85
2023/05/06 03:53:14;;;;;;;15.70;5.82;;;;;;;14.38;65.82;100649.50;5072954;28;20047;-84
2023/05/06 03:55:40;;;;;;;14.48;5.78;;;;;;;14.45;65.78;100660.59;5073330;28;20036;-86
2023/05/06 03:58:06;;;;;;;14.45;4.82;;;;;;;14.51;65.80;100670.81;5075171;28;20065;-86
2023/05/06 04:00:32;;;;;;;13.15;5.25;;;;;;;14.50;65.61;100648.31;5074394;28;20028;-86
2023/05/06 04:02:57;;;;;;;9.45;4.95;;;;;;;14.54;65.32;100654.28;5089287;28;20049;-85
2023/05/06 04:05:23;;;;;;;16.83;5.90;;;;;;;14.47;65.65;100631.53;5090176;28;20036;-84
2023/05/06 04:07:48;;;;;;;17.20;6.53;;;;;;;14.64;65.37;100652.41;5080459;28;20582;-87
2023/05/06 04:10:14;;;;;;;17.98;5.07;;;;;;;14.74;65.17;100664.00;5091574;28;20043;-85
2023/05/06 04:12:39;;;;;;;64.10;11.10;;;;;;;14.80;65.20;100657.97;5095600;28;20044;-88
2023/05/06 04:15:06;;;;;;;10.43;5.07;;;;;;;14.85;65.49;100666.53;5095092;28;20047;-85
2023/05/06 04:17:31;;;;;;;18.33;5.22;;;;;;;14.94;65.16;100676.44;5093838;28;20054;-84
2023/05/06 04:19:57;;;;;;;15.68;5.15;;;;;;;15.00;65.20;100670.44;5093448;28;20040;-85
2023/05/06 04:22:22;;;;;;;11.60;5.50;;;;;;;15.09;65.00;100668.66;5092815;28;20028;-86
2023/05/06 04:24:48;;;;;;;11.02;5.22;;;;;;;15.12;64.97;100669.19;5092052;28;20094;-86
2023/05/06 04:27:13;;;;;;;15.68;4.95;;;;;;;15.20;64.95;100684.69;5075231;28;20062;-86
2023/05/06 04:29:39;;;;;;;15.98;6.10;;;;;;;15.22;64.81;100672.72;5093787;28;20601;-85
2023/05/06 04:32:05;;;;;;;23.20;5.90;;;;;;;15.33;64.69;100678.88;5074417;28;20036;-87
2023/05/06 04:34:31;;;;;;;20.63;5.38;;;;;;;15.35;64.78;100677.72;5093292;28;20064;-85
2023/05/06 04:36:57;;;;;;;13.60;5.03;;;;;;;15.41;64.64;100681.69;5075922;28;20076;-87
2023/05/06 04:39:25;;;;;;;28.58;6.88;;;;;;;15.47;64.37;100684.66;5090200;28;20028;-87
2023/05/06 04:41:51;;;;;;;10.27;6.00;;;;;;;15.51;64.76;100688.75;5076483;28;20040;-87
2023/05/06 04:44:16;;;;;;;12.98;6.13;;;;;;;15.58;64.33;100689.00;5072466;28;20468;-86
2023/05/06 04:46:42;;;;;;;13.57;6.20;;;;;;;15.63;64.42;100697.50;5072948;28;20024;-86
2023/05/06 04:49:07;;;;;;;20.15;5.53;;;;;;;15.67;64.48;100690.78;5073582;28;20077;-86
2023/05/06 04:51:32;;;;;;;15.48;5.50;;;;;;;15.79;64.25;100697.66;5077564;28;20081;-86
2023/05/06 04:53:58;;;;;;;32.70;9.18;;;;;;;15.86;64.40;100697.88;5075599;28;20025;-87
2023/05/06 04:56:23;;;;;;;25.90;6.55;;;;;;;15.96;64.13;100704.91;5073297;28;20107;-81
2023/05/06 04:58:49;;;;;;;15.57;5.13;;;;;;;16.03;63.93;100699.72;5073502;28;20062;-85
2023/05/06 05:01:14;;;;;;;14.02;5.30;;;;;;;16.19;63.96;100714.25;5083369;28;20029;-86
2023/05/06 05:03:40;;;;;;;14.15;5.40;;;;;;;16.16;63.02;100687.44;5090813;28;20033;-87
2023/05/06 05:06:06;;;;;;;14.98;6.40;;;;;;;16.40;62.65;100702.16;5073693;28;20036;-82
2023/05/06 05:08:31;;;;;;;8.70;5.53;;;;;;;16.44;62.36;100698.13;5070579;28;20086;-84
2023/05/06 05:10:57;;;;;;;16.63;5.43;;;;;;;16.46;62.44;100693.38;5070610;28;20025;-84
2023/05/06 05:13:22;;;;;;;14.05;5.28;;;;;;;16.51;61.97;100685.63;5070274;28;20539;-85
2023/05/06 05:15:48;;;;;;;11.30;5.85;;;;;;;16.59;62.15;100691.13;5072008;28;20105;-85
2023/05/06 05:18:13;;;;;;;21.05;7.03;;;;;;;16.58;62.14;100689.41;5071921;28;20109;-84
2023/05/06 05:20:39;;;;;;;17.45;6.05;;;;;;;16.78;61.54;100708.03;5071009;28;20442;-85
2023/05/06 05:23:04;;;;;;;47.95;6.68;;;;;;;16.69;61.81;100690.00;5074047;28;20043;-88
2023/05/06 05:25:30;;;;;;;14.90;5.43;;;;;;;16.82;61.62;100692.25;5074290;28;20067;-88
2023/05/06 05:27:55;;;;;;;29.42;7.22;;;;;;;17.03;61.72;100716.28;5072611;28;20024;-83
2023/05/06 05:30:21;;;;;;;13.30;6.15;;;;;;;17.15;61.59;100713.13;5071732;28;20078;-81
2023/05/06 05:32:46;;;;;;;16.45;6.38;;;;;;;17.28;60.92;100704.47;5071954;28;20033;-88
2023/05/06 05:35:12;;;;;;;20.55;5.65;;;;;;;17.32;61.29;100705.84;5071436;28;20059;-90
2023/05/06 05:37:37;;;;;;;21.30;5.40;;;;;;;17.45;61.02;100702.63;5070633;28;20166;-82
2023/05/06 05:40:03;;;;;;;17.08;6.22;;;;;;;17.69;60.55;100719.03;5070091;28;20035;-82
2023/05/06 05:42:32;;;;;;;18.50;6.32;;;;;;;17.88;59.86;100729.59;5069266;28;20113;-82
2023/05/06 05:44:59;;;;;;;15.60;5.00;;;;;;;17.99;59.41;100712.91;5070023;28;20448;-81
2023/05/06 05:47:25;;;;;;;12.45;4.53;;;;;;;18.19;59.08;100727.91;5070786;28;20039;-82
2023/05/06 05:49:50;;;;;;;29.70;6.82;;;;;;;18.27;58.38;100725.16;5074290;28;20025;-86
2023/05/06 05:52:16;;;;;;;26.27;5.90;;;;;;;18.43;57.97;100718.84;5072352;28;20548;-83
2023/05/06 05:54:41;;;;;;;17.65;6.30;;;;;;;18.52;57.10;100714.25;5070101;28;20056;-83
2023/05/06 05:57:06;;;;;;;12.18;4.60;;;;;;;18.62;56.77;100718.50;5075545;28;20066;-89
2023/05/06 05:59:32;;;;;;;26.70;5.63;;;;;;;18.70;56.95;100714.88;5086022;28;20025;-87
2023/05/06 06:01:57;;;;;;;15.00;6.43;;;;;;;18.82;56.43;100725.22;5081141;28;20089;-82
2023/05/06 06:04:23;;;;;;;26.70;6.35;;;;;;;18.99;56.48;100736.91;5070560;28;20028;-85
2023/05/06 06:06:48;;;;;;;36.38;13.90;;;;;;;19.09;55.80;100728.53;5068603;28;20035;-84
2023/05/06 06:09:15;;;;;;;13.05;5.30;;;;;;;19.02;54.59;100707.41;5070029;28;20038;-85
2023/05/06 06:11:41;;;;;;;43.42;8.95;;;;;;;19.21;54.47;100744.31;5070409;28;20024;-83
2023/05/06 06:14:06;;;;;;;14.48;5.20;;;;;;;19.02;54.82;100731.09;5069413;28;20035;-83
2023/05/06 06:16:32;;;;;;;58.70;8.90;;;;;;;19.19;55.31;100740.91;5069319;28;20107;-87
2023/05/06 06:18:57;;;;;;;46.88;11.05;;;;;;;19.15;55.15;100723.22;5069504;28;20032;-86
2023/05/06 06:21:23;;;;;;;20.58;6.13;;;;;;;19.33;55.21;100718.34;5070583;28;20050;-83
2023/05/06 06:23:48;;;;;;;14.50;6.68;;;;;;;19.45;54.37;100716.94;5069900;28;20034;-85
2023/05/06 06:26:14;;;;;;;15.50;6.15;;;;;;;19.59;53.67;100726.25;5071309;28;20031;-85
2023/05/06 06:28:40;;;;;;;12.52;4.47;;;;;;;19.69;53.65;100720.56;5068301;28;20036;-84
2023/05/06 06:31:06;;;;;;;13.00;5.15;;;;;;;19.80;53.71;100731.03;5068787;28;20025;-82
2023/05/06 06:33:31;;;;;;;20.67;7.93;;;;;;;19.88;53.29;100729.09;5068806;28;20411;-81
2023/05/06 06:35:57;;;;;;;29.58;5.85;;;;;;;19.98;53.61;100737.88;5069701;28;20029;-86
2023/05/06 06:38:23;;;;;;;34.80;6.30;;;;;;;19.94;52.65;100722.91;5078902;28;20056;-88
2023/05/06 06:40:48;;;;;;;84.65;11.70;;;;;;;20.14;52.47;100734.19;5074191;28;20059;-82
2023/05/06 06:43:14;;;;;;;17.08;5.97;;;;;;;20.11;52.22;100729.09;5068983;28;20118;-85
2023/05/06 06:45:39;;;;;;;46.00;12.65;;;;;;;20.22;52.54;100731.38;5068609;28;20400;-86
2023/05/06 06:48:05;;;;;;;29.48;7.32;;;;;;;20.34;52.33;100746.31;5072834;28;20115;-86
2023/05/06 06:50:30;;;;;;;24.40;6.15;;;;;;;20.34;52.21;100729.91;5072603;28;20060;-86
2023/05/06 06:52:55;;;;;;;17.17;4.32;;;;;;;20.47;51.97;100726.56;5071291;28;20487;-86
2023/05/06 06:55:21;;;;;;;31.75;10.32;;;;;;;20.56;51.52;100739.94;5086508;28;20004;-88
2023/05/06 06:57:46;;;;;;;22.40;6.40;;;;;;;20.51;51.91;100728.75;5085855;28;20041;-85
2023/05/06 07:00:12;;;;;;;27.70;11.65;;;;;;;20.56;51.57;100729.03;5071102;28;20801;-85
2023/05/06 07:02:38;;;;;;;27.90;8.15;;;;;;;20.63;51.62;100723.66;5069375;28;20037;-85
2023/05/06 07:05:03;;;;;;;42.03;10.02;;;;;;;20.76;51.54;100733.94;5069132;28;20020;-83
2023/05/06 07:07:29;;;;;;;28.20;8.07;;;;;;;20.87;51.27;100730.72;5069320;28;20079;-84
2023/05/06 07:09:55;;;;;;;20.45;7.05;;;;;;;20.76;51.00;100706.59;5069975;28;20361;-87
2023/05/06 07:12:23;;;;;;;25.20;10.15;;;;;;;20.92;50.62;100707.25;5075655;28;20028;-87
2023/05/06 07:14:48;;;;;;;57.50;15.18;;;;;;;21.22;50.25;100740.94;5076657;28;20113;-85
2023/05/06 07:17:14;;;;;;;19.02;4.90;;;;;;;21.19;49.77;100740.47;5072722;28;20036;-81
2023/05/06 07:19:39;;;;;;;30.25;10.48;;;;;;;21.29;49.57;100744.56;5074281;28;20039;-84
2023/05/06 07:22:05;;;;;;;11.13;5.15;;;;;;;21.35;49.50;100743.81;5070598;28;20032;-83
2023/05/06 07:24:30;;;;;;;46.85;16.33;;;;;;;21.49;49.75;100742.09;5054705;28;20148;-84
2023/05/06 07:26:56;;;;;;;21.33;5.03;;;;;;;21.36;48.73;100731.84;5067690;28;20065;-78
2023/05/06 07:29:22;;;;;;;15.63;7.10;;;;;;;21.47;49.20;100733.22;5073926;28;20077;-79
2023/05/06 07:31:47;;;;;;;9.23;4.57;;;;;;;21.54;49.07;100739.63;5074057;28;20036;-81
2023/05/06 07:34:13;;;;;;;26.60;7.75;;;;;;;21.44;48.97;100722.66;5074585;28;20032;-81
2023/05/06 07:36:42;;;;;;;7.65;4.75;;;;;;;21.43;48.71;100720.97;5073885;28;20506;-84
2023/05/06 07:39:08;;;;;;;13.35;4.07;;;;;;;21.49;47.74;100740.22;5071597;28;20040;-85
2023/05/06 07:41:34;;;;;;;13.07;4.13;;;;;;;21.50;48.33;100739.16;5073075;28;20029;-81
2023/05/06 07:43:59;;;;;;;23.35;4.50;;;;;;;21.48;48.00;100754.94;5074890;28;20036;-83
2023/05/06 07:46:25;;;;;;;11.45;4.57;;;;;;;21.49;47.85;100753.03;5074193;28;20498;-82
2023/05/06 07:48:53;;;;;;;28.85;5.97;;;;;;;21.50;47.76;100738.31;5073154;28;20165;-85
2023/05/06 07:51:18;;;;;;;21.48;6.50;;;;;;;21.63;47.61;100752.16;5081396;28;20033;-82
2023/05/06 07:53:44;;;;;;;14.07;4.47;;;;;;;21.45;48.13;100733.41;5083660;28;20033;-85
2023/05/06 07:56:09;;;;;;;16.83;4.63;;;;;;;21.45;48.46;100725.22;5078853;28;20081;-81
2023/05/06 07:58:35;;;;;;;12.55;3.42;;;;;;;21.76;47.90;100765.13;5072629;28;20067;-83
2023/05/06 08:01:02;;;;;;;24.05;6.05;;;;;;;21.94;48.25;100779.28;5073956;28;20051;-84
2023/05/06 08:03:29;;;;;;;26.55;4.25;;;;;;;21.88;48.10;100783.63;5074061;28;20143;-87
2023/05/06 08:05:54;;;;;;;19.73;5.07;;;;;;;21.68;48.19;100775.16;5088632;28;20511;-82
2023/05/06 08:08:21;;;;;;;14.23;3.95;;;;;;;21.49;49.79;100761.25;5072091;28;20040;-84
2023/05/06 08:10:46;;;;;;;21.88;5.32;;;;;;;21.63;49.94;100790.47;5074580;28;20023;-79
2023/05/06 08:13:12;;;;;;;28.30;5.82;;;;;;;21.81;49.77;100784.56;5071858;28;20028;-80
2023/05/06 08:15:38;;;;;;;31.60;4.78;;;;;;;21.74;49.72;100765.34;5072922;28;20081;-81
2023/05/06 08:18:04;;;;;;;33.65;6.13;;;;;;;21.76;49.43;100760.50;5076706;28;20024;-85
2023/05/06 08:20:29;;;;;;;16.73;5.07;;;;;;;21.92;49.48;100789.59;5076085;28;20025;-85
2023/05/06 08:22:55;;;;;;;12.77;4.32;;;;;;;21.96;49.90;100766.22;5075051;28;20032;-83
2023/05/06 08:25:20;;;;;;;26.67;6.95;;;;;;;21.92;50.29;100767.66;5073585;28;20029;-84
2023/05/06 08:27:46;;;;;;;22.88;6.75;;;;;;;21.92;49.35;100764.94;5072976;28;20081;-82
2023/05/06 08:30:12;;;;;;;39.33;6.75;;;;;;;22.11;49.67;100788.91;5072633;28;20025;-82
2023/05/06 08:32:38;;;;;;;27.38;5.10;;;;;;;21.95;50.49;100789.19;5069539;28;20043;-86
2023/05/06 08:35:05;;;;;;;27.83;6.20;;;;;;;22.01;50.19;100785.66;5071559;28;20134;-81
2023/05/06 08:37:31;;;;;;;18.02;4.80;;;;;;;21.99;50.00;100749.38;5072653;28;20048;-82
2023/05/06 08:39:56;;;;;;;21.50;5.15;;;;;;;22.15;49.87;100788.34;5073214;28;20086;-82
2023/05/06 08:42:24;;;;;;;29.65;6.65;;;;;;;22.11;48.46;100799.88;5074047;28;20095;-80
2023/05/06 08:44:51;;;;;;;17.95;4.57;;;;;;;22.23;48.89;100804.63;5073513;28;20051;-81
2023/05/06 08:47:19;;;;;;;19.02;5.57;;;;;;;22.20;49.19;100794.06;5071142;28;20122;-80
2023/05/06 08:49:45;;;;;;;18.55;4.90;;;;;;;22.35;49.48;100802.25;5076432;28;20479;-81
2023/05/06 08:52:11;;;;;;;16.88;4.45;;;;;;;22.38;47.04;100818.28;5074177;28;20040;-82
2023/05/06 08:54:37;;;;;;;23.35;4.68;;;;;;;22.32;47.27;100805.38;5071497;28;20024;-80
2023/05/06 08:57:07;;;;;;;21.30;4.00;;;;;;;22.34;47.19;100803.28;5071335;28;20040;-78
2023/05/06 08:59:33;;;;;;;23.20;5.13;;;;;;;22.48;46.99;100810.56;5070644;28;20051;-85
2023/05/06 09:02:02;;;;;;;16.40;4.80;;;;;;;22.55;47.49;100806.00;5070113;28;20586;-85
2023/05/06 09:04:29;;;;;;;14.75;3.65;;;;;;;22.60;46.59;100819.94;5071124;28;20112;-82
2023/05/06 09:06:57;;;;;;;14.15;4.00;;;;;;;22.56;47.01;100801.38;5071558;28;20032;-82
2023/05/06 09:09:23;;;;;;;24.95;6.45;;;;;;;22.60;47.57;100806.25;5084832;28;20020;-77
2023/05/06 09:11:56;;;;;;;20.17;3.25;;;;;;;22.52;46.46;100800.06;5069443;28;20552;-82
2023/05/06 09:14:22;;;;;;;30.40;5.63;;;;;;;22.65;46.73;100803.81;5069238;28;20094;-83
2023/05/06 09:16:50;;;;;;;64.75;9.02;;;;;;;22.69;46.11;100785.03;5069480;28;20028;-81
2023/05/06 09:19:17;;;;;;;9.23;3.97;;;;;;;22.76;46.51;100803.25;5069368;28;20067;-81
2023/05/06 09:21:45;;;;;;;12.05;4.25;;;;;;;22.93;46.58;100797.47;5069523;28;20025;-81
2023/05/06 09:24:12;;;;;;;20.75;4.63;;;;;;;23.01;46.65;100797.28;5068739;28;20035;-84
2023/05/06 09:26:39;;;;;;;14.02;4.85;;;;;;;23.01;45.67;100805.53;5067976;28;20033;-80
2023/05/06 09:29:05;;;;;;;15.57;4.50;;;;;;;22.66;45.91;100800.00;5068571;28;20028;-79
2023/05/06 09:31:31;;;;;;;21.10;4.97;;;;;;;22.56;46.54;100791.25;5068411;28;20037;-81
2023/05/06 09:33:58;;;;;;;23.30;5.28;;;;;;;22.51;46.49;100801.09;5067783;28;20031;-82
2023/05/06 09:36:26;;;;;;;18.70;6.70;;;;;;;22.42;46.29;100789.44;5069507;28;20028;-79
2023/05/06 09:38:55;;;;;;;32.15;6.13;;;;;;;22.45;47.23;100783.53;5069833;28;20029;-80
2023/05/06 09:41:24;;;;;;;24.38;6.53;;;;;;;22.66;47.73;100783.53;5069437;28;20083;-79
2023/05/06 09:43:51;;;;;;;25.88;6.57;;;;;;;22.96;47.20;100784.19;5070841;28;20032;-80
2023/05/06 09:46:18;;;;;;;18.02;4.43;;;;;;;22.90;45.46;100782.25;5075582;28;20039;-80
2023/05/06 09:48:45;;;;;;;38.55;4.82;;;;;;;23.05;45.83;100779.38;5072948;28;20032;-79
2023/05/06 09:51:11;;;;;;;30.65;7.80;;;;;;;23.20;45.54;100760.91;5069599;28;20032;-83
2023/05/06 09:53:37;;;;;;;13.60;4.35;;;;;;;23.48;44.96;100775.41;5069405;28;20526;-84
2023/05/06 09:56:07;;;;;;;9.68;4.57;;;;;;;23.53;44.40;100772.91;5069895;28;20107;-83
2023/05/06 09:58:33;;;;;;;27.60;4.78;;;;;;;23.65;43.39;100776.75;5069699;28;20051;-83
2023/05/06 10:01:00;;;;;;;12.10;3.78;;;;;;;23.38;42.54;100768.56;5069856;28;20105;-82
2023/05/06 10:03:26;;;;;;;24.00;3.97;;;;;;;23.22;43.40;100781.59;5069948;28;20028;-80
2023/05/06 10:05:56;;;;;;;15.20;4.28;;;;;;;23.26;43.71;100771.91;5070189;28;20032;-78
2023/05/06 10:08:23;;;;;;;16.77;4.68;;;;;;;23.27;42.61;100772.75;5067046;28;20036;-78
2023/05/06 10:10:50;;;;;;;14.57;4.10;;;;;;;23.27;43.00;100767.28;5065658;28;20056;-81
2023/05/06 10:13:16;;;;;;;24.45;4.07;;;;;;;23.27;43.51;100764.53;5066070;28;20063;-80
2023/05/06 10:15:45;;;;;;;22.42;4.38;;;;;;;23.49;42.62;100757.88;5065805;28;20052;-81
2023/05/06 10:18:14;;;;;;;18.58;3.53;;;;;;;23.50;42.91;100756.84;5065046;28;20043;-80
2023/05/06 10:20:41;;;;;;;18.88;4.05;;;;;;;23.57;42.69;100762.34;5061968;28;20438;-79
2023/05/06 10:23:15;;;;;;;9.00;3.47;;;;;;;23.61;42.83;100775.44;5066391;28;20498;-79
2023/05/06 10:25:42;;;;;;;16.48;3.70;;;;;;;23.60;41.82;100762.78;5065913;28;20028;-80
2023/05/06 10:28:09;;;;;;;11.70;4.40;;;;;;;23.52;42.38;100765.69;5065961;28;20051;-79
2023/05/06 10:30:37;;;;;;;11.25;3.22;;;;;;;23.54;42.83;100769.09;5066102;28;20052;-81
2023/05/06 10:33:06;;;;;;;7.07;3.38;;;;;;;23.59;42.82;100766.59;5066729;28;20220;-80
2023/05/06 10:35:41;;;;;;;10.13;2.50;;;;;;;23.57;42.64;100746.72;5067687;28;20430;-79
2023/05/06 10:38:16;;;;;;;16.52;3.85;;;;;;;23.52;42.65;100765.69;5066868;28;20072;-79
2023/05/06 10:40:43;;;;;;;12.05;4.05;;;;;;;23.17;41.68;100764.03;5072373;28;20020;-82
2023/05/06 10:43:27;;;;;;;13.05;3.50;;;;;;;23.15;43.13;100757.88;5071569;28;20155;-82
2023/05/06 10:45:59;;;;;;;22.63;4.80;;;;;;;23.19;43.38;100770.16;5075788;28;20024;-78
2023/05/06 10:48:25;;;;;;;54.70;8.18;;;;;;;23.25;43.45;100775.69;5073331;28;20407;-80
2023/05/06 10:50:50;;;;;;;12.95;3.85;;;;;;;23.13;43.99;100769.09;5075253;28;20035;-82
2023/05/06 10:53:16;;;;;;;12.75;3.72;;;;;;;23.11;44.38;100764.84;5074841;28;20033;-80
2023/05/06 10:55:41;;;;;;;12.65;3.47;;;;;;;23.09;44.99;100764.19;5074598;28;20376;-79
2023/05/06 10:58:10;;;;;;;25.20;4.85;;;;;;;23.19;45.33;100770.16;5074809;28;20106;-80
2023/05/06 11:00:35;;;;;;;9.40;3.53;;;;;;;23.31;45.44;100774.03;5074752;28;20035;-80
2023/05/06 11:03:05;;;;;;;14.70;3.78;;;;;;;23.10;46.14;100757.66;5074664;28;20644;-80
2023/05/06 11:05:34;;;;;;;19.98;5.53;;;;;;;23.21;45.75;100746.09;5075206;28;20414;-79
2023/05/06 11:08:10;;;;;;;13.93;5.10;;;;;;;23.39;45.91;100773.91;5075374;28;20177;-82
2023/05/06 11:10:36;;;;;;;16.38;6.20;;;;;;;23.27;46.36;100756.28;5073481;28;20344;-80
2023/05/06 11:13:18;;;;;;;20.52;5.82;;;;;;;23.30;47.02;100766.88;5074489;28;20028;-80
2023/05/06 11:15:45;;;;;;;22.58;4.25;;;;;;;23.24;46.91;100771.25;5075195;28;20489;-79